Time;durP1;ratioP1;P1;durP2;ratioP2;P2;SDS_P1;SDS_P2;PMS_P1;PMS_P2;Temp;Humidity;BMP_temperature;BMP_pressure;BME280_temperature;BME280_humidity;BME280_pressure;Samples;Min_cycle;Max_cycle;Signal;HPM_P1;HPM_P2
2024/03/30 00:00:58;;;;;;;1.67;1.57;;;11.80;99.90;;;;;;5068741;28;20277;-76
2024/03/30 00:03:25;;;;;;;1.90;1.80;;;11.80;99.90;;;;;;5068079;28;20238;-77
2024/03/30 00:05:59;;;;;;;1.60;1.50;;;11.80;99.90;;;;;;5071109;28;20230;-76
2024/03/30 00:08:26;;;;;;;1.50;1.40;;;11.80;99.90;;;;;;5088492;28;20195;-75
2024/03/30 00:11:00;;;;;;;2.03;1.80;;;11.80;99.90;;;;;;5088612;28;20207;-76
2024/03/30 00:13:27;;;;;;;1.70;1.60;;;11.80;99.90;;;;;;5087537;28;20242;-76
2024/03/30 00:15:53;;;;;;;1.90;1.80;;;11.80;99.90;;;;;;5088424;28;20214;-76
2024/03/30 00:18:21;;;;;;;2.00;1.90;;;11.80;99.90;;;;;;5088313;28;20207;-76
2024/03/30 00:20:47;;;;;;;1.70;1.60;;;11.80;99.90;;;;;;5087367;28;20218;-76
2024/03/30 00:23:14;;;;;;;2.80;1.60;;;11.80;99.90;;;;;;5068046;28;20685;-76
2024/03/30 00:25:41;;;;;;;2.10;1.60;;;11.80;99.90;;;;;;5084711;28;20199;-78
2024/03/30 00:28:10;;;;;;;1.60;1.50;;;11.80;99.90;;;;;;5088843;28;20207;-76
2024/03/30 00:30:39;;;;;;;2.03;1.80;;;11.80;99.90;;;;;;5088165;28;20203;-75
2024/03/30 00:33:08;;;;;;;2.03;1.90;;;11.80;99.90;;;;;;5085730;28;20570;-76
2024/03/30 00:35:34;;;;;;;1.73;1.63;;;11.80;99.90;;;;;;5071618;28;20242;-76
2024/03/30 00:38:02;;;;;;;1.77;1.67;;;11.80;99.90;;;;;;5084826;28;20210;-77
2024/03/30 00:40:28;;;;;;;1.93;1.77;;;11.80;99.90;;;;;;5088097;28;20218;-76
2024/03/30 00:42:56;;;;;;;2.90;1.97;;;11.80;99.90;;;;;;5082144;28;20590;-78
2024/03/30 00:45:23;;;;;;;2.40;1.70;;;11.80;99.90;;;;;;5095020;28;20661;-78
2024/03/30 00:47:51;;;;;;;2.33;2.13;;;11.80;99.90;;;;;;5095743;28;20209;-78
2024/03/30 00:50:16;;;;;;;2.00;1.80;;;11.70;99.90;;;;;;5092334;28;20199;-76
2024/03/30 00:52:44;;;;;;;1.80;1.70;;;11.70;99.90;;;;;;5085111;28;20202;-76
2024/03/30 00:55:12;;;;;;;1.80;1.67;;;11.70;99.90;;;;;;5087266;28;20313;-76
2024/03/30 00:57:42;;;;;;;1.90;1.80;;;11.60;99.90;;;;;;5087710;28;20211;-76
2024/03/30 01:00:13;;;;;;;1.90;1.80;;;11.60;99.90;;;;;;5087190;28;20254;-77
2024/03/30 01:02:42;;;;;;;2.03;1.83;;;11.60;99.90;;;;;;5087408;28;20282;-76
2024/03/30 01:05:09;;;;;;;2.13;2.03;;;11.50;99.90;;;;;;5074056;28;20211;-76
2024/03/30 01:07:36;;;;;;;1.80;1.70;;;11.50;99.90;;;;;;5068675;28;20196;-76
2024/03/30 01:10:03;;;;;;;2.23;2.03;;;11.50;99.90;;;;;;5075522;28;20252;-76
2024/03/30 01:12:31;;;;;;;3.63;1.90;;;11.50;99.90;;;;;;5087166;28;20699;-76
2024/03/30 01:14:58;;;;;;;2.13;1.97;;;11.50;99.90;;;;;;5086782;28;20243;-77
2024/03/30 01:17:26;;;;;;;2.43;2.23;;;11.40;99.90;;;;;;5087374;28;20210;-76
2024/03/30 01:19:54;;;;;;;2.40;2.20;;;11.40;99.90;;;;;;5086450;28;20203;-76
2024/03/30 01:22:22;;;;;;;2.50;2.33;;;11.40;99.90;;;;;;5078065;28;20202;-76
2024/03/30 01:24:51;;;;;;;2.30;2.10;;;11.40;99.90;;;;;;5067318;28;20207;-76
2024/03/30 01:27:21;;;;;;;3.60;2.40;;;11.40;99.90;;;;;;5066770;28;20594;-77
2024/03/30 01:29:51;;;;;;;2.83;2.50;;;11.30;99.90;;;;;;5066689;28;20300;-76
2024/03/30 01:32:18;;;;;;;2.47;2.27;;;11.30;99.90;;;;;;5067362;28;20223;-76
2024/03/30 01:34:45;;;;;;;2.60;2.50;;;11.30;99.90;;;;;;5076071;28;20341;-76
2024/03/30 01:37:14;;;;;;;2.70;2.50;;;11.30;99.90;;;;;;5082986;28;20696;-76
2024/03/30 01:39:40;;;;;;;2.70;2.50;;;11.20;99.90;;;;;;5085180;28;20210;-76
2024/03/30 01:42:07;;;;;;;2.43;2.23;;;11.30;99.90;;;;;;5085658;28;20263;-78
2024/03/30 01:44:33;;;;;;;2.57;2.37;;;11.20;99.90;;;;;;5071162;28;20207;-79
2024/03/30 01:47:01;;;;;;;2.40;2.20;;;11.20;99.90;;;;;;5077193;28;20319;-78
2024/03/30 01:49:30;;;;;;;2.77;2.30;;;11.20;99.90;;;;;;5072186;28;20652;-78
2024/03/30 01:51:59;;;;;;;3.13;2.73;;;11.10;99.90;;;;;;5074440;28;20194;-78
2024/03/30 01:54:29;;;;;;;2.60;2.40;;;11.10;99.90;;;;;;5070870;28;20697;-77
2024/03/30 01:57:00;;;;;;;3.30;2.50;;;11.10;99.90;;;;;;5070975;28;20302;-78
2024/03/30 01:59:26;;;;;;;2.63;2.43;;;11.10;99.90;;;;;;5070807;28;20241;-78
2024/03/30 02:01:56;;;;;;;2.63;2.43;;;11.10;99.90;;;;;;5070894;28;20239;-79
2024/03/30 02:04:24;;;;;;;3.23;2.93;;;11.10;99.90;;;;;;5071554;28;20234;-74
2024/03/30 02:06:51;;;;;;;3.30;2.63;;;11.00;99.90;;;;;;5091110;28;20210;-75
2024/03/30 02:09:18;;;;;;;2.60;2.37;;;11.00;99.90;;;;;;5071124;28;20257;-76
2024/03/30 02:11:46;;;;;;;2.33;2.13;;;11.00;99.90;;;;;;5070904;28;20215;-75
2024/03/30 02:14:15;;;;;;;2.90;2.70;;;10.90;99.90;;;;;;5070334;28;20705;-76
2024/03/30 02:16:45;;;;;;;3.63;2.77;;;10.90;99.90;;;;;;5070456;28;20290;-77
2024/03/30 02:19:13;;;;;;;2.70;2.50;;;10.90;99.90;;;;;;5070395;28;20577;-77
2024/03/30 02:21:39;;;;;;;2.60;2.40;;;10.90;99.90;;;;;;5070394;28;20301;-77
2024/03/30 02:24:07;;;;;;;2.80;2.60;;;10.90;99.90;;;;;;5072871;28;20238;-78
2024/03/30 02:26:34;;;;;;;2.73;2.53;;;10.80;99.90;;;;;;5070262;28;20226;-78
2024/03/30 02:29:04;;;;;;;2.70;2.50;;;10.80;99.90;;;;;;5070267;28;20203;-78
2024/03/30 02:31:31;;;;;;;3.20;2.80;;;10.80;99.90;;;;;;5085036;28;20197;-77
2024/03/30 02:33:58;;;;;;;2.37;2.27;;;10.80;99.90;;;;;;5090107;28;20287;-77
2024/03/30 02:36:26;;;;;;;3.33;2.50;;;10.80;99.90;;;;;;5084876;28;20302;-77
2024/03/30 02:38:53;;;;;;;2.87;2.67;;;10.70;99.90;;;;;;5082275;28;20669;-76
2024/03/30 02:41:21;;;;;;;3.67;2.80;;;10.70;99.90;;;;;;5090656;28;20214;-77
2024/03/30 02:43:47;;;;;;;2.77;2.57;;;10.60;99.90;;;;;;5082143;28;20206;-78
2024/03/30 02:46:14;;;;;;;3.37;3.07;;;10.70;99.90;;;;;;5090467;28;20264;-78
2024/03/30 02:48:40;;;;;;;2.60;2.40;;;10.70;99.90;;;;;;5089765;28;20236;-76
2024/03/30 02:51:07;;;;;;;3.30;3.00;;;10.70;99.90;;;;;;5090307;28;20206;-78
2024/03/30 02:53:33;;;;;;;3.00;2.73;;;10.70;99.90;;;;;;5087471;28;20191;-76
2024/03/30 02:56:00;;;;;;;3.00;2.80;;;10.70;99.90;;;;;;5088765;28;20268;-77
2024/03/30 02:58:29;;;;;;;2.67;2.47;;;10.70;99.90;;;;;;5090143;28;20210;-77
2024/03/30 03:00:58;;;;;;;2.37;2.27;;;10.70;99.90;;;;;;5077545;28;20254;-77
2024/03/30 03:03:28;;;;;;;3.10;2.90;;;10.70;99.90;;;;;;5069859;28;20214;-78
2024/03/30 03:05:56;;;;;;;2.83;2.63;;;10.60;99.90;;;;;;5069537;28;20577;-78
2024/03/30 03:08:27;;;;;;;3.00;2.80;;;10.60;99.90;;;;;;5074139;28;20198;-77
2024/03/30 03:10:53;;;;;;;3.03;2.80;;;10.50;99.90;;;;;;5089713;28;20383;-77
2024/03/30 03:13:22;;;;;;;3.00;2.60;;;10.50;99.90;;;;;;5089319;28;20233;-79
2024/03/30 03:15:49;;;;;;;2.97;2.77;;;10.40;99.90;;;;;;5087662;28;20766;-77
2024/03/30 03:18:16;;;;;;;2.83;2.63;;;10.50;99.90;;;;;;5094395;28;20206;-75
2024/03/30 03:20:43;;;;;;;2.97;2.77;;;10.50;99.90;;;;;;5099328;28;20237;-76
2024/03/30 03:23:10;;;;;;;2.87;2.67;;;10.60;99.90;;;;;;5097437;28;20206;-76
2024/03/30 03:25:36;;;;;;;2.77;2.57;;;10.60;99.90;;;;;;5095550;28;20202;-76
2024/03/30 03:28:04;;;;;;;2.93;2.73;;;10.60;99.90;;;;;;5086847;28;20278;-77
2024/03/30 03:30:32;;;;;;;2.50;2.40;;;10.60;99.90;;;;;;5098653;28;20808;-78
2024/03/30 03:33:05;;;;;;;3.40;3.10;;;10.60;99.90;;;;;;5096813;28;20264;-77
2024/03/30 03:35:34;;;;;;;2.73;2.53;;;10.60;99.90;;;;;;5097509;28;20245;-77
2024/03/30 03:38:05;;;;;;;4.50;2.97;;;10.70;99.90;;;;;;5089032;28;20207;-78
2024/03/30 03:40:34;;;;;;;2.77;2.57;;;10.70;99.90;;;;;;5069134;28;20208;-77
2024/03/30 03:43:02;;;;;;;3.23;2.60;;;10.70;99.90;;;;;;5068709;28;20670;-77
2024/03/30 03:45:28;;;;;;;3.00;2.80;;;10.70;99.90;;;;;;5083557;28;20276;-77
2024/03/30 03:47:55;;;;;;;2.80;2.60;;;10.70;99.90;;;;;;5089261;28;20840;-78
2024/03/30 03:50:22;;;;;;;3.00;2.80;;;10.70;99.90;;;;;;5088595;28;20571;-77
2024/03/30 03:52:52;;;;;;;2.83;2.63;;;10.70;99.90;;;;;;5088764;28;20575;-75
2024/03/30 03:55:17;;;;;;;2.93;2.73;;;10.70;99.90;;;;;;5072403;28;20448;-75
2024/03/30 03:57:45;;;;;;;2.90;2.80;;;10.70;99.90;;;;;;5083585;28;20259;-75
2024/03/30 04:00:14;;;;;;;3.00;2.80;;;10.70;99.90;;;;;;5088750;28;20207;-76
2024/03/30 04:02:43;;;;;;;3.03;2.73;;;10.60;99.90;;;;;;5088578;28;20263;-78
2024/03/30 04:05:11;;;;;;;3.40;2.83;;;10.50;99.90;;;;;;5075649;28;20225;-77
2024/03/30 04:07:41;;;;;;;2.70;2.50;;;10.50;99.90;;;;;;5067728;28;20214;-76
2024/03/30 04:10:09;;;;;;;2.90;2.70;;;10.40;99.90;;;;;;5072426;28;20207;-76
2024/03/30 04:12:39;;;;;;;2.83;2.63;;;10.40;99.90;;;;;;5068491;28;20239;-78
2024/03/30 04:15:06;;;;;;;2.80;2.60;;;10.50;99.90;;;;;;5067931;28;20297;-77
2024/03/30 04:17:34;;;;;;;2.80;2.60;;;10.50;99.90;;;;;;5082056;28;20589;-77
2024/03/30 04:20:00;;;;;;;2.70;2.40;;;10.50;99.90;;;;;;5099201;28;20206;-76
2024/03/30 04:22:28;;;;;;;2.87;2.67;;;10.50;99.90;;;;;;5087360;28;20223;-78
2024/03/30 04:24:55;;;;;;;3.73;2.80;;;10.50;99.90;;;;;;5090767;28;20211;-77
2024/03/30 04:27:23;;;;;;;3.10;2.90;;;10.50;99.90;;;;;;5085998;28;20218;-78
2024/03/30 04:29:49;;;;;;;2.63;2.43;;;10.50;99.90;;;;;;5087513;28;20246;-78
2024/03/30 04:32:16;;;;;;;2.93;2.50;;;10.50;99.90;;;;;;5088371;28;20207;-78
2024/03/30 04:34:43;;;;;;;4.07;3.00;;;10.50;99.90;;;;;;5079633;28;20238;-78
2024/03/30 04:37:10;;;;;;;4.07;2.87;;;10.50;99.90;;;;;;5088574;28;20210;-79
2024/03/30 04:39:37;;;;;;;2.80;2.70;;;10.50;99.90;;;;;;5085278;28;20195;-75
2024/03/30 04:42:05;;;;;;;3.17;2.93;;;10.50;99.90;;;;;;5087981;28;20563;-77
2024/03/30 04:44:34;;;;;;;3.10;2.90;;;10.50;99.90;;;;;;5086250;28;20219;-76
2024/03/30 04:47:01;;;;;;;3.30;2.77;;;10.50;99.90;;;;;;5067404;28;20294;-76
2024/03/30 04:49:30;;;;;;;2.57;2.47;;;10.50;99.90;;;;;;5067874;28;20718;-76
2024/03/30 04:51:56;;;;;;;3.00;2.80;;;10.50;99.90;;;;;;5067108;28;20742;-76
2024/03/30 04:54:29;;;;;;;2.93;2.73;;;10.50;99.90;;;;;;5069542;28;20288;-79
2024/03/30 04:56:55;;;;;;;3.03;2.83;;;10.50;99.90;;;;;;5087749;28;20298;-78
2024/03/30 04:59:24;;;;;;;3.30;3.10;;;10.40;99.90;;;;;;5087653;28;20626;-78
2024/03/30 05:01:49;;;;;;;3.43;3.23;;;10.40;99.90;;;;;;5087691;28;20297;-75
2024/03/30 05:04:16;;;;;;;3.17;2.97;;;10.40;99.90;;;;;;5081712;28;20293;-75
2024/03/30 05:06:42;;;;;;;3.30;3.00;;;10.40;99.90;;;;;;5067305;28;20210;-76
2024/03/30 05:09:18;;;;;;;4.63;3.33;;;10.40;99.90;;;;;;5068554;28;20298;-76
2024/03/30 05:11:44;;;;;;;3.90;3.60;;;10.30;99.90;;;;;;5067281;28;20230;-76
2024/03/30 05:14:10;;;;;;;3.23;3.03;;;10.30;99.90;;;;;;5067237;28;20716;-76
2024/03/30 05:16:38;;;;;;;4.30;3.90;;;10.40;99.90;;;;;;5067428;28;20295;-76
2024/03/30 05:20:42;;;;;;;4.07;3.73;;;10.40;99.90;;;;;;5066911;28;20848;-76
2024/03/30 05:21:51;;;;;;;4.63;3.90;;;10.40;99.90;;;;;;5067083;28;20207;-76
2024/03/30 05:24:18;;;;;;;6.23;4.20;;;10.40;99.90;;;;;;5067346;28;20226;-76
2024/03/30 05:26:44;;;;;;;4.60;4.20;;;10.40;99.90;;;;;;5083249;28;20302;-75
2024/03/30 05:29:11;;;;;;;4.03;3.70;;;10.50;99.90;;;;;;5087279;28;20724;-75
2024/03/30 05:31:38;;;;;;;4.30;3.90;;;10.50;99.90;;;;;;5087291;28;20245;-75
2024/03/30 05:34:05;;;;;;;4.50;4.10;;;10.50;99.90;;;;;;5083147;28;20570;-75
2024/03/30 05:36:32;;;;;;;5.67;4.33;;;10.60;99.90;;;;;;5078693;28;20195;-75
2024/03/30 05:38:58;;;;;;;6.10;4.27;;;10.60;99.90;;;;;;5087151;28;20318;-76
2024/03/30 05:41:24;;;;;;;4.80;4.40;;;10.60;99.90;;;;;;5073091;28;20745;-75
2024/03/30 05:43:50;;;;;;;6.57;4.67;;;10.60;99.90;;;;;;5066912;28;20294;-75
2024/03/30 05:46:23;;;;;;;5.23;4.73;;;10.70;99.90;;;;;;5066822;28;20225;-75
2024/03/30 05:48:50;;;;;;;8.00;5.60;;;10.60;99.90;;;;;;5087231;28;20203;-76
2024/03/30 05:51:17;;;;;;;9.23;6.73;;;10.70;99.90;;;;;;5087101;28;20198;-76
2024/03/30 05:53:46;;;;;;;7.33;6.10;;;10.70;99.90;;;;;;5087597;28;20296;-76
2024/03/30 05:56:14;;;;;;;6.10;5.50;;;10.70;99.90;;;;;;5078893;28;20366;-74
2024/03/30 05:58:40;;;;;;;8.13;6.07;;;10.70;99.90;;;;;;5081643;28;20744;-74
2024/03/30 06:01:07;;;;;;;6.63;5.50;;;10.70;99.90;;;;;;5086958;28;20293;-74
2024/03/30 06:03:32;;;;;;;5.17;4.47;;;10.80;99.90;;;;;;5087319;28;20305;-74
2024/03/30 06:06:01;;;;;;;4.60;4.13;;;10.80;99.90;;;;;;5066754;28;20318;-74
2024/03/30 06:08:26;;;;;;;4.10;3.80;;;10.80;99.90;;;;;;5069705;28;21098;-74
2024/03/30 06:10:53;;;;;;;4.07;3.50;;;10.80;99.90;;;;;;5080986;28;20260;-75
2024/03/30 06:13:19;;;;;;;3.73;3.43;;;10.80;99.90;;;;;;5066574;28;20405;-75
2024/03/30 06:15:46;;;;;;;3.50;3.20;;;10.80;99.90;;;;;;5066356;28;20925;-77
2024/03/30 06:18:12;;;;;;;4.07;3.10;;;10.80;99.90;;;;;;5077186;28;20209;-77
2024/03/30 06:20:39;;;;;;;3.20;3.00;;;10.80;99.90;;;;;;5086205;28;20199;-77
2024/03/30 06:23:06;;;;;;;4.57;3.17;;;10.90;99.90;;;;;;5086021;28;20214;-78
2024/03/30 06:25:33;;;;;;;3.57;3.27;;;10.90;99.90;;;;;;5084737;28;20199;-77
2024/03/30 06:27:59;;;;;;;3.70;3.40;;;11.00;99.90;;;;;;5086713;28;20238;-76
2024/03/30 06:30:26;;;;;;;4.50;3.53;;;11.00;99.90;;;;;;5082815;28;20288;-77
2024/03/30 06:32:52;;;;;;;2.97;2.77;;;11.00;99.90;;;;;;5070468;28;20239;-76
2024/03/30 06:35:19;;;;;;;3.80;3.03;;;11.10;99.90;;;;;;5069922;28;20324;-76
2024/03/30 06:37:45;;;;;;;3.37;3.17;;;11.20;99.90;;;;;;5069985;28;20208;-76
2024/03/30 06:45:41;;;;;;;5.90;3.37;;;11.30;99.90;;;;;;5070206;28;20862;-77
2024/03/30 06:48:08;;;;;;;3.20;2.90;;;11.40;99.90;;;;;;5069612;28;20658;-76
2024/03/30 06:50:35;;;;;;;3.97;3.00;;;11.40;99.90;;;;;;5070348;28;20207;-76
2024/03/30 06:53:02;;;;;;;3.33;2.83;;;11.50;99.90;;;;;;5069466;28;20282;-76
2024/03/30 06:55:29;;;;;;;3.30;3.00;;;11.50;99.90;;;;;;5072713;28;20318;-76
2024/03/30 06:57:56;;;;;;;2.70;2.50;;;11.50;99.90;;;;;;5069793;28;20199;-75
2024/03/30 07:00:22;;;;;;;3.27;2.97;;;11.50;99.90;;;;;;5072420;28;20285;-76
2024/03/30 07:02:49;;;;;;;2.60;2.40;;;11.60;99.90;;;;;;5078080;28;20560;-76
2024/03/30 07:05:15;;;;;;;2.80;2.60;;;11.60;99.90;;;;;;5080216;28;20203;-77
2024/03/30 07:07:42;;;;;;;4.20;2.90;;;11.70;99.90;;;;;;5077478;28;20243;-77
2024/03/30 07:10:08;;;;;;;2.90;2.70;;;11.70;99.90;;;;;;5078832;28;20649;-77
2024/03/30 07:12:38;;;;;;;2.73;2.53;;;11.80;99.90;;;;;;5081513;28;20214;-77
2024/03/30 07:15:05;;;;;;;3.13;2.60;;;11.80;99.90;;;;;;5073948;28;20239;-78
2024/03/30 07:17:32;;;;;;;2.90;2.60;;;11.80;99.90;;;;;;5072531;28;20627;-76
2024/03/30 07:19:58;;;;;;;2.90;2.70;;;11.90;99.90;;;;;;5080539;28;20282;-77
2024/03/30 07:22:25;;;;;;;3.27;2.83;;;11.90;99.90;;;;;;5074822;28;20796;-77
2024/03/30 07:24:51;;;;;;;5.00;2.90;;;12.00;99.90;;;;;;5070369;28;20291;-77
2024/03/30 07:27:17;;;;;;;3.90;2.93;;;12.10;99.90;;;;;;5070836;28;20207;-76
2024/03/30 07:29:49;;;;;;;2.93;2.57;;;12.20;99.90;;;;;;5096372;28;20298;-76
2024/03/30 07:32:15;;;;;;;4.17;2.70;;;12.20;99.90;;;;;;5089555;28;20195;-75
2024/03/30 07:34:45;;;;;;;3.47;2.80;;;12.30;99.90;;;;;;5079594;28;20330;-76
2024/03/30 07:37:12;;;;;;;5.17;2.87;;;12.40;99.90;;;;;;5068963;28;20211;-76
2024/03/30 07:39:39;;;;;;;4.10;2.60;;;12.50;99.90;;;;;;5070759;28;20207;-76
2024/03/30 07:42:06;;;;;;;4.60;2.83;;;12.50;99.90;;;;;;5087904;28;20612;-76
2024/03/30 07:44:32;;;;;;;3.53;2.70;;;12.60;99.90;;;;;;5086097;28;20270;-76
2024/03/30 07:47:01;;;;;;;4.57;2.53;;;12.60;99.90;;;;;;5066480;28;20208;-76
2024/03/30 07:49:27;;;;;;;8.83;2.80;;;12.70;99.90;;;;;;5067046;28;20214;-76
2024/03/30 07:51:54;;;;;;;2.70;2.37;;;12.70;99.90;;;;;;5066502;28;20208;-76
2024/03/30 07:54:19;;;;;;;4.10;2.83;;;12.80;99.90;;;;;;5076336;28;20201;-76
2024/03/30 07:56:54;;;;;;;2.73;2.53;;;12.80;99.90;;;;;;5086496;28;20207;-76
2024/03/30 07:59:21;;;;;;;4.07;2.57;;;12.90;99.90;;;;;;5087238;28;20195;-76
2024/03/30 08:01:48;;;;;;;2.57;2.37;;;13.00;99.90;;;;;;5086896;28;20584;-75
2024/03/30 08:04:16;;;;;;;7.03;2.63;;;13.00;99.90;;;;;;5080273;28;20238;-75
2024/03/30 08:06:43;;;;;;;3.57;2.77;;;13.00;99.90;;;;;;5077204;28;20672;-78
2024/03/30 08:09:09;;;;;;;4.33;2.40;;;13.10;99.90;;;;;;5097118;28;20198;-76
2024/03/30 08:11:36;;;;;;;2.83;2.10;;;13.10;99.90;;;;;;5094603;28;20213;-80
2024/03/30 08:14:03;;;;;;;3.13;2.50;;;13.10;99.90;;;;;;5086181;28;20231;-80
2024/03/30 08:16:29;;;;;;;5.40;2.57;;;13.20;99.90;;;;;;5094449;28;20751;-81
2024/03/30 08:18:57;;;;;;;8.20;2.87;;;13.20;99.90;;;;;;5082367;28;20238;-80
2024/03/30 08:21:25;;;;;;;3.97;2.50;;;13.20;99.90;;;;;;5095018;28;20590;-81
2024/03/30 08:23:51;;;;;;;4.37;2.77;;;13.30;99.90;;;;;;5100088;28;20271;-80
2024/03/30 08:26:18;;;;;;;6.13;2.63;;;13.30;99.90;;;;;;5096131;28;20242;-80
2024/03/30 08:28:46;;;;;;;4.83;2.63;;;13.40;99.90;;;;;;5091264;28;20732;-81
2024/03/30 08:31:13;;;;;;;7.70;3.17;;;13.50;99.90;;;;;;5097072;28;20660;-78
2024/03/30 08:33:38;;;;;;;6.50;3.20;;;13.60;99.90;;;;;;5094364;28;21058;-77
2024/03/30 08:36:05;;;;;;;7.10;3.33;;;13.60;99.90;;;;;;5093976;28;20230;-77
2024/03/30 08:38:33;;;;;;;7.67;3.53;;;13.60;99.90;;;;;;5091496;28;20246;-75
2024/03/30 08:41:00;;;;;;;9.27;3.73;;;13.70;99.90;;;;;;5089569;28;20285;-74
2024/03/30 08:43:26;;;;;;;7.30;3.13;;;13.70;99.90;;;;;;5096923;28;20287;-74
2024/03/30 08:45:53;;;;;;;7.80;3.30;;;13.80;99.90;;;;;;5094854;28;20198;-74
2024/03/30 08:48:19;;;;;;;10.53;3.47;;;13.80;99.90;;;;;;5100595;28;20205;-74
2024/03/30 08:50:47;;;;;;;10.97;3.33;;;13.90;99.90;;;;;;5091673;28;20202;-74
2024/03/30 08:53:13;;;;;;;15.13;3.57;;;13.90;99.90;;;;;;5093440;28;20297;-74
2024/03/30 08:55:41;;;;;;;16.30;3.90;;;14.00;99.90;;;;;;5097916;28;20228;-77
2024/03/30 08:58:07;;;;;;;14.47;3.50;;;14.20;99.90;;;;;;5088822;28;20289;-76
2024/03/30 09:00:35;;;;;;;13.57;4.43;;;14.20;99.90;;;;;;5093556;28;20304;-80
2024/03/30 09:03:01;;;;;;;16.07;3.60;;;14.30;99.90;;;;;;5090030;28;20203;-83
2024/03/30 09:05:29;;;;;;;13.20;3.80;;;14.40;99.90;;;;;;5088086;28;20249;-78
2024/03/30 09:07:55;;;;;;;12.90;3.97;;;14.40;99.90;;;;;;5096597;28;20239;-83
2024/03/30 09:10:24;;;;;;;17.50;4.03;;;14.50;99.90;;;;;;5092108;28;20219;-83
2024/03/30 09:12:52;;;;;;;13.03;3.77;;;14.50;99.90;;;;;;5079677;28;21409;-83
2024/03/30 09:15:19;;;;;;;14.87;4.60;;;14.60;99.90;;;;;;5092778;28;20229;-84
2024/03/30 09:17:45;;;;;;;11.87;4.13;;;14.70;99.90;;;;;;5089027;28;20649;-75
2024/03/30 09:20:12;;;;;;;10.07;4.93;;;14.70;99.90;;;;;;5094328;28;20199;-75
2024/03/30 09:22:38;;;;;;;19.50;4.73;;;14.80;99.90;;;;;;5086512;28;20251;-75
2024/03/30 09:25:12;;;;;;;17.00;4.77;;;14.90;99.90;;;;;;5086527;28;20735;-75
2024/03/30 09:27:38;;;;;;;17.23;4.70;;;15.00;99.90;;;;;;5086502;28;20199;-75
2024/03/30 09:30:08;;;;;;;21.77;4.57;;;14.90;99.90;;;;;;5068906;28;20840;-75
2024/03/30 09:32:36;;;;;;;23.37;5.70;;;14.90;99.90;;;;;;5067311;28;20200;-76
2024/03/30 09:35:03;;;;;;;26.77;5.23;;;15.00;99.90;;;;;;5066540;28;20235;-75
2024/03/30 09:37:29;;;;;;;27.13;5.17;;;15.00;99.90;;;;;;5066371;28;20239;-75
2024/03/30 09:39:55;;;;;;;28.03;5.80;;;15.00;99.90;;;;;;5066820;28;20798;-75
2024/03/30 09:42:29;;;;;;;28.40;6.53;;;15.00;99.90;;;;;;5066828;28;20215;-75
2024/03/30 09:44:56;;;;;;;27.73;6.67;;;15.10;99.90;;;;;;5066818;28;20654;-76
2024/03/30 09:47:25;;;;;;;29.87;6.27;;;15.20;99.90;;;;;;5066932;28;20294;-75
2024/03/30 09:49:52;;;;;;;30.63;6.80;;;15.20;99.90;;;;;;5067035;28;20218;-76
2024/03/30 09:52:20;;;;;;;29.33;6.93;;;15.30;99.90;;;;;;5066527;28;21094;-75
2024/03/30 09:54:51;;;;;;;24.57;5.77;;;15.30;99.90;;;;;;5066617;28;20208;-75
2024/03/30 09:57:17;;;;;;;25.63;6.03;;;15.40;99.90;;;;;;5070974;28;20241;-76
2024/03/30 09:59:45;;;;;;;30.27;6.13;;;15.50;99.90;;;;;;5078468;28;20195;-75
2024/03/30 10:02:10;;;;;;;26.80;6.03;;;15.70;99.90;;;;;;5078989;28;20209;-75
2024/03/30 10:04:39;;;;;;;33.77;7.00;;;15.90;99.90;;;;;;5078588;28;20564;-75
2024/03/30 10:07:11;;;;;;;32.27;6.43;;;15.90;99.90;;;;;;5089507;28;20613;-75
2024/03/30 10:09:38;;;;;;;40.23;8.23;;;16.00;99.90;;;;;;5090948;28;20306;-76
2024/03/30 10:12:11;;;;;;;31.43;7.00;;;16.20;99.90;;;;;;5086066;28;20294;-75
2024/03/30 10:14:44;;;;;;;36.53;9.07;;;16.40;99.90;;;;;;5085257;28;20230;-76
2024/03/30 10:17:11;;;;;;;32.43;6.73;;;16.50;99.90;;;;;;5089458;28;20211;-76
2024/03/30 10:19:41;;;;;;;37.27;8.20;;;16.50;99.90;;;;;;5070628;28;20208;-75
2024/03/30 10:22:07;;;;;;;44.50;8.03;;;16.50;99.90;;;;;;5070093;28;20204;-75
2024/03/30 10:24:35;;;;;;;45.40;8.17;;;16.50;99.90;;;;;;5070587;28;20203;-75
2024/03/30 10:27:02;;;;;;;45.03;8.40;;;16.60;99.90;;;;;;5070355;28;20318;-75
2024/03/30 10:29:29;;;;;;;44.90;8.83;;;16.70;99.90;;;;;;5072267;28;20211;-76
2024/03/30 10:31:55;;;;;;;49.83;9.63;;;16.70;99.90;;;;;;5090531;28;20210;-75
2024/03/30 10:34:22;;;;;;;43.60;8.80;;;16.70;99.90;;;;;;5083874;28;20615;-76
2024/03/30 10:36:51;;;;;;;47.23;9.37;;;16.80;99.90;;;;;;5069912;28;20322;-75
2024/03/30 10:39:20;;;;;;;41.23;8.77;;;17.00;99.90;;;;;;5069752;28;20653;-75
2024/03/30 10:41:46;;;;;;;46.77;8.67;;;17.20;99.90;;;;;;5069760;28;20211;-76
2024/03/30 10:44:12;;;;;;;45.30;8.30;;;17.30;99.90;;;;;;5070210;28;20576;-75
2024/03/30 10:46:40;;;;;;;52.00;9.50;;;17.40;99.90;;;;;;5069989;28;20234;-75
2024/03/30 10:49:06;;;;;;;44.03;8.70;;;17.40;99.90;;;;;;5071729;28;20291;-75
2024/03/30 10:51:33;;;;;;;45.97;8.50;;;17.50;99.90;;;;;;5089283;28;20203;-76
2024/03/30 10:54:08;;;;;;;58.63;10.43;;;17.80;99.90;;;;;;5090168;28;20634;-75
2024/03/30 10:56:35;;;;;;;46.57;10.33;;;17.80;99.90;;;;;;5073061;28;20566;-75
2024/03/30 10:59:03;;;;;;;62.83;11.70;;;17.80;99.90;;;;;;5078049;28;20260;-75
2024/03/30 11:01:31;;;;;;;51.97;11.17;;;17.90;99.90;;;;;;5090016;28;20883;-75
2024/03/30 11:03:58;;;;;;;54.47;10.87;;;17.80;99.90;;;;;;5075376;28;20252;-76
2024/03/30 11:06:26;;;;;;;54.97;10.90;;;17.80;99.90;;;;;;5068605;28;20207;-75
2024/03/30 11:08:53;;;;;;;51.63;10.63;;;17.90;99.90;;;;;;5081922;28;20294;-76
2024/03/30 11:11:22;;;;;;;48.67;11.00;;;18.10;99.90;;;;;;5073293;28;20740;-76
2024/03/30 11:13:48;;;;;;;57.03;12.23;;;18.10;99.90;;;;;;5076130;28;20659;-76
2024/03/30 11:16:15;;;;;;;55.77;11.57;;;18.10;99.90;;;;;;5088226;28;20231;-75
2024/03/30 11:18:54;;;;;;;58.57;11.60;;;18.20;99.90;;;;;;5085884;28;20693;-76
2024/03/30 11:21:27;;;;;;;58.13;10.50;;;18.20;99.90;;;;;;5068609;28;20210;-76
2024/03/30 11:23:56;;;;;;;59.93;11.07;;;18.30;99.90;;;;;;5069134;28;20207;-75
2024/03/30 11:26:25;;;;;;;49.93;10.93;;;18.40;99.90;;;;;;5087564;28;20203;-76
2024/03/30 11:28:59;;;;;;;71.07;11.23;;;18.50;99.90;;;;;;5087810;28;20245;-76
2024/03/30 11:31:35;;;;;;;57.17;9.83;;;18.60;99.90;;;;;;5085569;28;20206;-76
2024/03/30 11:34:04;;;;;;;54.15;11.35;;;18.60;99.90;;;;;;5076559;28;20306;-75
2024/03/30 11:36:36;;;;;;;54.20;11.23;;;18.90;99.90;;;;;;5080952;28;20223;-76
2024/03/30 11:39:14;;;;;;;58.83;10.90;;;18.80;99.90;;;;;;5071288;28;20643;-76
2024/03/30 11:41:45;;;;;;;53.35;10.40;;;18.90;99.90;;;;;;5088602;28;20225;-77
2024/03/30 11:44:13;;;;;;;58.67;10.82;;;18.90;99.90;;;;;;5084360;28;20288;-76
2024/03/30 11:46:42;;;;;;;59.53;11.27;;;18.90;99.90;;;;;;5071331;28;20238;-76
2024/03/30 11:49:09;;;;;;;63.17;10.48;;;19.00;99.90;;;;;;5068427;28;20488;-76
2024/03/30 11:51:41;;;;;;;59.20;10.75;;;19.10;99.90;;;;;;5068119;28;20199;-76
2024/03/30 11:54:20;;;;;;;57.22;10.57;;;19.40;99.90;;;;;;5068046;28;20230;-76
2024/03/30 11:57:05;;;;;;;65.78;11.35;;;19.60;99.90;;;;;;5068905;28;20246;-76
2024/03/30 11:59:37;;;;;;;66.57;11.60;;;19.80;99.90;;;;;;5083781;28;20210;-76
2024/03/30 12:02:04;;;;;;;59.08;10.55;;;20.10;99.90;;;;;;5079629;28;20763;-76
2024/03/30 12:04:31;;;;;;;55.58;11.52;;;20.00;99.90;;;;;;5080289;28;20209;-76
2024/03/30 12:06:58;;;;;;;63.53;10.95;;;20.10;99.90;;;;;;5082090;28;20195;-76
2024/03/30 12:09:27;;;;;;;65.68;11.60;;;20.40;99.90;;;;;;5077556;28;20285;-76
2024/03/30 12:12:13;;;;;;;51.33;10.50;;;20.50;99.90;;;;;;5085548;28;20192;-76
2024/03/30 12:14:39;;;;;;;60.10;11.52;;;20.40;99.90;;;;;;5068186;28;20737;-76
2024/03/30 12:17:06;;;;;;;62.20;12.52;;;20.30;99.90;;;;;;5082839;28;20277;-76
2024/03/30 12:19:34;;;;;;;74.55;12.65;;;20.30;99.90;;;;;;5067654;28;20556;-76
2024/03/30 12:22:01;;;;;;;61.67;13.05;;;20.30;99.90;;;;;;5067435;28;20662;-74
2024/03/30 12:24:27;;;;;;;63.67;12.15;;;20.40;99.90;;;;;;5067957;28;20291;-74
2024/03/30 12:26:57;;;;;;;64.15;12.70;;;20.40;99.90;;;;;;5086989;28;20203;-74
2024/03/30 12:29:23;;;;;;;62.58;12.20;;;20.40;99.90;;;;;;5084747;28;20230;-75
2024/03/30 12:31:50;;;;;;;67.07;12.57;;;20.50;99.90;;;;;;5069189;28;20541;-74
2024/03/30 12:34:16;;;;;;;60.97;11.07;;;20.50;99.90;;;;;;5068276;28;20223;-75
2024/03/30 12:36:44;;;;;;;62.10;12.80;;;20.50;99.90;;;;;;5081359;28;20312;-74
2024/03/30 12:39:11;;;;;;;63.53;11.48;;;20.60;99.90;;;;;;5070592;28;20282;-75
2024/03/30 12:41:38;;;;;;;58.65;11.75;;;20.80;99.90;;;;;;5067869;28;20570;-76
2024/03/30 12:44:06;;;;;;;54.85;11.85;;;21.30;99.90;;;;;;5068768;28;20309;-75
2024/03/30 12:46:33;;;;;;;67.15;11.77;;;21.50;99.90;;;;;;5071586;28;20211;-76
2024/03/30 12:49:01;;;;;;;65.95;11.63;;;21.80;99.90;;;;;;5087701;28;20317;-76
2024/03/30 12:51:29;;;;;;;53.70;11.35;;;21.70;99.90;;;;;;5087705;28;20230;-75